NKS2 KMCO-KEWR
Flight info
| Callsign | NKS2 |
|---|---|
| Flight time | 2h 13m |
| Altitude | 37000 |
| Route | FATHE4 VIYAP Q87 ALWZZ OGRAE Q99 QUART PHLBO4 |
| Aircraft | A321/M-SDE3FGHIRWY/LB1 |
Departure
| Time | 2026-05-05 22:04 |
|---|---|
| Airport | Orlando International Airport (KMCO) |
Arrival
| Time | 2026-05-06 00:17 |
|---|---|
| Airport | Newark Liberty International Airport (KEWR) |
| Time | Latitude | Longitude | Altitude | Speed | Heading |
|---|---|---|---|---|---|
| 2026-05-05 21:34 | 28.43316 | -81.31570 | 102 ft | 0 kts | 16° |
| 2026-05-05 21:50 | 28.43313 | -81.31571 | 102 ft | 3 kts | 15° |
| 2026-05-05 21:51 | 28.43288 | -81.31575 | 102 ft | 4 kts | 344° |
| 2026-05-05 21:51 | 28.43269 | -81.31561 | 101 ft | 4 kts | 284° |
| 2026-05-05 21:51 | 28.43268 | -81.31548 | 102 ft | 1 kts | 258° |
| 2026-05-05 21:53 | 28.43268 | -81.31549 | 102 ft | 1 kts | 258° |
| 2026-05-05 21:53 | 28.43268 | -81.31580 | 102 ft | 11 kts | 275° |
| 2026-05-05 21:54 | 28.43283 | -81.31679 | 102 ft | 13 kts | 275° |
| 2026-05-05 21:54 | 28.43253 | -81.31781 | 102 ft | 15 kts | 238° |
| 2026-05-05 21:54 | 28.43167 | -81.31837 | 102 ft | 15 kts | 186° |
| 2026-05-05 21:54 | 28.43061 | -81.31841 | 103 ft | 16 kts | 180° |
| 2026-05-05 21:55 | 28.42946 | -81.31838 | 102 ft | 17 kts | 178° |
| 2026-05-05 21:55 | 28.42825 | -81.31835 | 104 ft | 17 kts | 179° |
| 2026-05-05 21:55 | 28.42707 | -81.31834 | 107 ft | 17 kts | 179° |
| 2026-05-05 21:55 | 28.42591 | -81.31833 | 107 ft | 17 kts | 180° |
| 2026-05-05 21:56 | 28.42467 | -81.31833 | 106 ft | 18 kts | 180° |
| 2026-05-05 21:56 | 28.42368 | -81.31821 | 107 ft | 10 kts | 147° |
| 2026-05-05 21:56 | 28.42347 | -81.31703 | 105 ft | 23 kts | 90° |
| 2026-05-05 21:56 | 28.42347 | -81.31513 | 102 ft | 25 kts | 89° |
| 2026-05-05 21:57 | 28.42352 | -81.31320 | 100 ft | 24 kts | 90° |
| 2026-05-05 21:57 | 28.42333 | -81.31130 | 100 ft | 24 kts | 102° |
| 2026-05-05 21:57 | 28.42318 | -81.30943 | 100 ft | 24 kts | 88° |
| 2026-05-05 21:57 | 28.42330 | -81.30763 | 106 ft | 21 kts | 84° |
| 2026-05-05 21:58 | 28.42342 | -81.30602 | 106 ft | 20 kts | 85° |
| 2026-05-05 21:58 | 28.42352 | -81.30438 | 101 ft | 23 kts | 85° |
| 2026-05-05 21:58 | 28.42359 | -81.30260 | 102 ft | 22 kts | 89° |
| 2026-05-05 21:58 | 28.42361 | -81.30089 | 104 ft | 21 kts | 90° |
| 2026-05-05 21:59 | 28.42361 | -81.29913 | 104 ft | 22 kts | 89° |
| 2026-05-05 21:59 | 28.42324 | -81.29796 | 102 ft | 16 kts | 163° |
| 2026-05-05 21:59 | 28.42200 | -81.29792 | 102 ft | 20 kts | 179° |
| 2026-05-05 21:59 | 28.42061 | -81.29789 | 101 ft | 20 kts | 178° |
| 2026-05-05 22:00 | 28.41913 | -81.29788 | 102 ft | 22 kts | 180° |
| 2026-05-05 22:00 | 28.41758 | -81.29787 | 102 ft | 22 kts | 180° |
| 2026-05-05 22:00 | 28.41601 | -81.29786 | 102 ft | 23 kts | 180° |
| 2026-05-05 22:00 | 28.41440 | -81.29784 | 102 ft | 23 kts | 179° |
| 2026-05-05 22:01 | 28.41276 | -81.29783 | 101 ft | 24 kts | 179° |
| 2026-05-05 22:01 | 28.41109 | -81.29781 | 101 ft | 24 kts | 179° |
| 2026-05-05 22:01 | 28.40941 | -81.29778 | 100 ft | 25 kts | 179° |
| 2026-05-05 22:01 | 28.40837 | -81.29765 | 100 ft | 13 kts | 145° |
| 2026-05-05 22:02 | 28.40823 | -81.29744 | 100 ft | 0 kts | 121° |
| 2026-05-05 22:02 | 28.40822 | -81.29743 | 100 ft | 1 kts | 117° |
| 2026-05-05 22:02 | 28.40820 | -81.29691 | 99 ft | 10 kts | 91° |
| 2026-05-05 22:02 | 28.40824 | -81.29599 | 97 ft | 13 kts | 75° |
| 2026-05-05 22:03 | 28.40886 | -81.29560 | 97 ft | 0 kts | 2° |
| 2026-05-05 22:03 | 28.40946 | -81.29559 | 97 ft | 36 kts | 0° |
| 2026-05-05 22:03 | 28.41463 | -81.29565 | 105 ft | 110 kts | 359° |
| 2026-05-05 22:03 | 28.42435 | -81.29561 | 110 ft | 165 kts | 355° |
| 2026-05-05 22:04 | 28.43582 | -81.29593 | 782 ft | 162 kts | 359° |
| 2026-05-05 22:04 | 28.44723 | -81.29611 | 1410 ft | 164 kts | 1° |
| 2026-05-05 22:04 | 28.45856 | -81.29443 | 1967 ft | 165 kts | 7° |
| 2026-05-05 22:04 | 28.46898 | -81.28891 | 2507 ft | 168 kts | 36° |
| 2026-05-05 22:05 | 28.46933 | -81.28862 | 2534 ft | 168 kts | 36° |
| 2026-05-05 22:05 | 28.47303 | -81.28540 | 2726 ft | 173 kts | 39° |
| 2026-05-05 22:05 | 28.48327 | -81.27684 | 3036 ft | 193 kts | 37° |
| 2026-05-05 22:05 | 28.49516 | -81.26788 | 3309 ft | 217 kts | 34° |
| 2026-05-05 22:06 | 28.50876 | -81.25825 | 3773 ft | 244 kts | 29° |
| 2026-05-05 22:06 | 28.52577 | -81.25265 | 4246 ft | 267 kts | 2° |
| 2026-05-05 22:06 | 28.54461 | -81.25283 | 4947 ft | 274 kts | 0° |
| 2026-05-05 22:06 | 28.56375 | -81.25293 | 5801 ft | 277 kts | 358° |
| 2026-05-05 22:07 | 28.58312 | -81.25325 | 6618 ft | 281 kts | 354° |
| 2026-05-05 22:07 | 28.60257 | -81.25554 | 6918 ft | 281 kts | 350° |
| 2026-05-05 22:07 | 28.62196 | -81.25836 | 7019 ft | 281 kts | 349° |
| 2026-05-05 22:07 | 28.64151 | -81.26123 | 7428 ft | 284 kts | 350° |
| 2026-05-05 22:08 | 28.66112 | -81.26395 | 8283 ft | 284 kts | 349° |
| 2026-05-05 22:08 | 28.67411 | -81.26571 | 8821 ft | 286 kts | 349° |
| 2026-05-05 22:08 | 28.69391 | -81.26836 | 9604 ft | 287 kts | 348° |
| 2026-05-05 22:08 | 28.71385 | -81.27104 | 10263 ft | 293 kts | 348° |
| 2026-05-05 22:09 | 28.73482 | -81.27396 | 10454 ft | 315 kts | 347° |
| 2026-05-05 22:09 | 28.76505 | -81.27832 | 10625 ft | 346 kts | 348° |
| 2026-05-05 22:09 | 28.78960 | -81.28175 | 10818 ft | 363 kts | 349° |
| 2026-05-05 22:09 | 28.81492 | -81.28519 | 11318 ft | 370 kts | 350° |
| 2026-05-05 22:10 | 28.84062 | -81.28856 | 11972 ft | 372 kts | 351° |
| 2026-05-05 22:10 | 28.85807 | -81.29059 | 12411 ft | 374 kts | 352° |
| 2026-05-05 22:10 | 28.88411 | -81.29302 | 13074 ft | 377 kts | 353° |
| 2026-05-05 22:10 | 28.91047 | -81.29505 | 13688 ft | 381 kts | 353° |
| 2026-05-05 22:11 | 28.93701 | -81.29697 | 14262 ft | 383 kts | 353° |
| 2026-05-05 22:11 | 28.96365 | -81.29896 | 14850 ft | 385 kts | 353° |
| 2026-05-05 22:11 | 28.99046 | -81.30110 | 15474 ft | 387 kts | 353° |
| 2026-05-05 22:11 | 29.01733 | -81.30356 | 16080 ft | 388 kts | 352° |
| 2026-05-05 22:12 | 29.04394 | -81.30644 | 16677 ft | 390 kts | 351° |
| 2026-05-05 22:12 | 29.07106 | -81.30962 | 17283 ft | 392 kts | 351° |
| 2026-05-05 22:12 | 29.09826 | -81.31288 | 17888 ft | 394 kts | 351° |
| 2026-05-05 22:12 | 29.12566 | -81.31585 | 18454 ft | 397 kts | 352° |
| 2026-05-05 22:13 | 29.15336 | -81.31799 | 18923 ft | 400 kts | 353° |
| 2026-05-05 22:13 | 29.18130 | -81.31957 | 19376 ft | 403 kts | 353° |
| 2026-05-05 22:13 | 29.20939 | -81.32086 | 19828 ft | 406 kts | 353° |
| 2026-05-05 22:13 | 29.23773 | -81.32216 | 20245 ft | 409 kts | 353° |
| 2026-05-05 22:14 | 29.26625 | -81.32360 | 20672 ft | 412 kts | 353° |
| 2026-05-05 22:14 | 29.29501 | -81.32519 | 21069 ft | 415 kts | 353° |
| 2026-05-05 22:14 | 29.32390 | -81.32690 | 21489 ft | 418 kts | 352° |
| 2026-05-05 22:14 | 29.35308 | -81.32870 | 21880 ft | 421 kts | 352° |
| 2026-05-05 22:15 | 29.38237 | -81.33053 | 22264 ft | 423 kts | 352° |
| 2026-05-05 22:15 | 29.41186 | -81.33235 | 22654 ft | 426 kts | 352° |
| 2026-05-05 22:15 | 29.44153 | -81.33418 | 23039 ft | 428 kts | 352° |
| 2026-05-05 22:15 | 29.47136 | -81.33601 | 23413 ft | 431 kts | 351° |
| 2026-05-05 22:16 | 29.50134 | -81.33785 | 23760 ft | 433 kts | 351° |
| 2026-05-05 22:16 | 29.53155 | -81.33969 | 24079 ft | 435 kts | 351° |
| 2026-05-05 22:16 | 29.56179 | -81.34152 | 24446 ft | 436 kts | 351° |
| 2026-05-05 22:16 | 29.59219 | -81.34335 | 24801 ft | 437 kts | 351° |
| 2026-05-05 22:17 | 29.62260 | -81.34521 | 25164 ft | 438 kts | 351° |
| 2026-05-05 22:17 | 29.65308 | -81.34703 | 25514 ft | 439 kts | 351° |
| 2026-05-05 22:17 | 29.68365 | -81.34880 | 25879 ft | 440 kts | 351° |
| 2026-05-05 22:17 | 29.71424 | -81.35054 | 26230 ft | 441 kts | 351° |
| 2026-05-05 22:18 | 29.74491 | -81.35226 | 26582 ft | 442 kts | 352° |
| 2026-05-05 22:18 | 29.77562 | -81.35398 | 26944 ft | 443 kts | 352° |
| 2026-05-05 22:18 | 29.80638 | -81.35570 | 27301 ft | 443 kts | 352° |
| 2026-05-05 22:18 | 29.83726 | -81.35744 | 27661 ft | 444 kts | 351° |
| 2026-05-05 22:19 | 29.86816 | -81.35920 | 28016 ft | 444 kts | 351° |
| 2026-05-05 22:19 | 29.89898 | -81.36096 | 28496 ft | 442 kts | 351° |
| 2026-05-05 22:19 | 29.92952 | -81.36272 | 28995 ft | 438 kts | 351° |
| 2026-05-05 22:19 | 29.95989 | -81.36449 | 29488 ft | 436 kts | 351° |
| 2026-05-05 22:20 | 29.99011 | -81.36625 | 29986 ft | 433 kts | 351° |
| 2026-05-05 22:20 | 30.02006 | -81.36798 | 30430 ft | 430 kts | 351° |
| 2026-05-05 22:20 | 30.04982 | -81.36965 | 30844 ft | 427 kts | 351° |
| 2026-05-05 22:20 | 30.07938 | -81.37131 | 31271 ft | 424 kts | 351° |
| 2026-05-05 22:21 | 30.10876 | -81.37299 | 31691 ft | 421 kts | 350° |
| 2026-05-05 22:21 | 30.13787 | -81.37470 | 32137 ft | 418 kts | 350° |
| 2026-05-05 22:21 | 30.16681 | -81.37640 | 32551 ft | 415 kts | 349° |
| 2026-05-05 22:21 | 30.19552 | -81.37808 | 32968 ft | 412 kts | 349° |
| 2026-05-05 22:22 | 30.22403 | -81.37972 | 33389 ft | 409 kts | 349° |
| 2026-05-05 22:22 | 30.25238 | -81.38137 | 33804 ft | 406 kts | 349° |
| 2026-05-05 22:22 | 30.28044 | -81.38300 | 34201 ft | 403 kts | 349° |
| 2026-05-05 22:22 | 30.30832 | -81.38460 | 34534 ft | 401 kts | 349° |
| 2026-05-05 22:23 | 30.33618 | -81.38620 | 34838 ft | 399 kts | 348° |
| 2026-05-05 22:23 | 30.36389 | -81.38780 | 35134 ft | 398 kts | 348° |
| 2026-05-05 22:23 | 30.39148 | -81.38940 | 35423 ft | 397 kts | 348° |
| 2026-05-05 22:23 | 30.41906 | -81.39100 | 35707 ft | 396 kts | 348° |
| 2026-05-05 22:24 | 30.44654 | -81.39261 | 36004 ft | 395 kts | 348° |
| 2026-05-05 22:24 | 30.47397 | -81.39420 | 36287 ft | 394 kts | 348° |
| 2026-05-05 22:24 | 30.50135 | -81.39568 | 36570 ft | 394 kts | 348° |
| 2026-05-05 22:24 | 30.52866 | -81.39710 | 36851 ft | 393 kts | 348° |
| 2026-05-05 22:25 | 30.55598 | -81.39852 | 37035 ft | 393 kts | 348° |
| 2026-05-05 22:25 | 30.61055 | -81.40137 | 37082 ft | 392 kts | 348° |
| 2026-05-05 22:26 | 30.66502 | -81.40426 | 37082 ft | 392 kts | 348° |
| 2026-05-05 22:26 | 30.71943 | -81.40718 | 37082 ft | 391 kts | 348° |
| 2026-05-05 22:27 | 30.77339 | -81.41005 | 37076 ft | 391 kts | 348° |
| 2026-05-05 22:27 | 30.82773 | -81.41289 | 37073 ft | 391 kts | 348° |
| 2026-05-05 22:28 | 30.88215 | -81.41578 | 37078 ft | 391 kts | 348° |
| 2026-05-05 22:28 | 30.93659 | -81.41864 | 37076 ft | 392 kts | 348° |
| 2026-05-05 22:29 | 30.99104 | -81.42160 | 37097 ft | 392 kts | 348° |
| 2026-05-05 22:29 | 31.04548 | -81.42457 | 37088 ft | 392 kts | 348° |
| 2026-05-05 22:30 | 31.09996 | -81.42743 | 37085 ft | 392 kts | 348° |
| 2026-05-05 22:30 | 31.15450 | -81.43031 | 37085 ft | 392 kts | 348° |
| 2026-05-05 22:31 | 31.20804 | -81.43321 | 37106 ft | 393 kts | 348° |
| 2026-05-05 22:31 | 31.26328 | -81.42787 | 37095 ft | 414 kts | 6° |
| 2026-05-05 22:31 | 31.29051 | -81.41528 | 37092 ft | 425 kts | 13° |
| 2026-05-05 22:32 | 31.31735 | -81.40066 | 37088 ft | 426 kts | 13° |
| 2026-05-05 22:32 | 31.37107 | -81.37139 | 37085 ft | 427 kts | 13° |
| 2026-05-05 22:33 | 31.42456 | -81.34231 | 37087 ft | 427 kts | 13° |
| 2026-05-05 22:33 | 31.47852 | -81.31302 | 37083 ft | 427 kts | 13° |
| 2026-05-05 22:34 | 31.53225 | -81.28382 | 37097 ft | 427 kts | 14° |
| 2026-05-05 22:34 | 31.58626 | -81.25441 | 37087 ft | 428 kts | 14° |
| 2026-05-05 22:35 | 31.64036 | -81.22491 | 37081 ft | 429 kts | 14° |
| 2026-05-05 22:35 | 31.69453 | -81.19527 | 37073 ft | 430 kts | 14° |
| 2026-05-05 22:36 | 31.74870 | -81.16563 | 37072 ft | 430 kts | 14° |
| 2026-05-05 22:36 | 31.80295 | -81.13599 | 37088 ft | 431 kts | 14° |
| 2026-05-05 22:37 | 31.85733 | -81.10623 | 37080 ft | 431 kts | 14° |
| 2026-05-05 22:37 | 31.91168 | -81.07639 | 37080 ft | 431 kts | 14° |
| 2026-05-05 22:38 | 31.96599 | -81.04650 | 37077 ft | 431 kts | 14° |
| 2026-05-05 22:38 | 32.02029 | -81.01649 | 37075 ft | 431 kts | 15° |
| 2026-05-05 22:39 | 32.07439 | -80.98626 | 37063 ft | 429 kts | 14° |
| 2026-05-05 22:39 | 32.12826 | -80.95606 | 37065 ft | 429 kts | 14° |
| 2026-05-05 22:40 | 32.18228 | -80.92581 | 37108 ft | 430 kts | 14° |
| 2026-05-05 22:40 | 32.23635 | -80.89549 | 37122 ft | 430 kts | 15° |
| 2026-05-05 22:41 | 32.29041 | -80.86511 | 37161 ft | 430 kts | 15° |
| 2026-05-05 22:41 | 32.34413 | -80.83486 | 37116 ft | 427 kts | 15° |
| 2026-05-05 22:42 | 32.39745 | -80.80483 | 37104 ft | 427 kts | 15° |
| 2026-05-05 22:42 | 32.45110 | -80.77450 | 37108 ft | 427 kts | 15° |
| 2026-05-05 22:43 | 32.50476 | -80.74419 | 37111 ft | 427 kts | 15° |
| 2026-05-05 22:43 | 32.55843 | -80.71390 | 37135 ft | 427 kts | 15° |
| 2026-05-05 22:44 | 32.61206 | -80.68349 | 37123 ft | 427 kts | 15° |
| 2026-05-05 22:44 | 32.66569 | -80.65299 | 37116 ft | 427 kts | 15° |
| 2026-05-05 22:45 | 32.71927 | -80.62257 | 37105 ft | 427 kts | 15° |
| 2026-05-05 22:45 | 32.77267 | -80.59124 | 37113 ft | 429 kts | 16° |
| 2026-05-05 22:46 | 32.82560 | -80.55948 | 37094 ft | 428 kts | 16° |
| 2026-05-05 22:46 | 32.87865 | -80.52775 | 37114 ft | 426 kts | 15° |
| 2026-05-05 22:47 | 32.93172 | -80.49618 | 37104 ft | 426 kts | 15° |
| 2026-05-05 22:47 | 32.98480 | -80.46461 | 37104 ft | 426 kts | 15° |
| 2026-05-05 22:48 | 33.03782 | -80.43299 | 37106 ft | 426 kts | 15° |
| 2026-05-05 22:48 | 33.09085 | -80.40125 | 37097 ft | 426 kts | 16° |
| 2026-05-05 22:49 | 33.14347 | -80.36979 | 37097 ft | 426 kts | 15° |
| 2026-05-05 22:49 | 33.19652 | -80.33797 | 37096 ft | 426 kts | 16° |
| 2026-05-05 22:50 | 33.24948 | -80.30614 | 37096 ft | 426 kts | 16° |
| 2026-05-05 22:50 | 33.30242 | -80.27425 | 37118 ft | 426 kts | 16° |
| 2026-05-05 22:51 | 33.35546 | -80.24233 | 37108 ft | 427 kts | 16° |
| 2026-05-05 22:51 | 33.40847 | -80.21044 | 37100 ft | 426 kts | 16° |
| 2026-05-05 22:52 | 33.46136 | -80.17854 | 37096 ft | 426 kts | 16° |
| 2026-05-05 22:52 | 33.51432 | -80.14648 | 37111 ft | 426 kts | 16° |
| 2026-05-05 22:53 | 33.56707 | -80.11451 | 37116 ft | 424 kts | 16° |
| 2026-05-05 22:53 | 33.61947 | -80.08273 | 37085 ft | 421 kts | 16° |
| 2026-05-05 22:54 | 33.67180 | -80.05106 | 37081 ft | 421 kts | 15° |
| 2026-05-05 22:54 | 33.72417 | -80.01930 | 37094 ft | 422 kts | 15° |
| 2026-05-05 22:55 | 33.77660 | -79.98741 | 37089 ft | 422 kts | 16° |
| 2026-05-05 22:55 | 33.82904 | -79.95542 | 37108 ft | 422 kts | 15° |
| 2026-05-05 22:56 | 33.88142 | -79.92347 | 37095 ft | 422 kts | 16° |
| 2026-05-05 22:56 | 33.93386 | -79.89138 | 37088 ft | 423 kts | 16° |
| 2026-05-05 22:57 | 33.98630 | -79.85926 | 37086 ft | 423 kts | 16° |
| 2026-05-05 22:57 | 34.02998 | -79.83246 | 37082 ft | 423 kts | 16° |
| 2026-05-05 22:58 | 34.09103 | -79.79545 | 37094 ft | 421 kts | 15° |
| 2026-05-05 22:58 | 34.14373 | -79.76511 | 37084 ft | 419 kts | 14° |
| 2026-05-05 22:59 | 34.18789 | -79.73994 | 37080 ft | 419 kts | 14° |
| 2026-05-05 22:59 | 34.24025 | -79.70986 | 37077 ft | 420 kts | 14° |
| 2026-05-05 23:00 | 34.31921 | -79.66385 | 37106 ft | 420 kts | 15° |
| 2026-05-05 23:00 | 34.37183 | -79.63313 | 37093 ft | 420 kts | 14° |
| 2026-05-05 23:01 | 34.42453 | -79.60244 | 37089 ft | 420 kts | 14° |
| 2026-05-05 23:01 | 34.47718 | -79.57170 | 37080 ft | 421 kts | 14° |
| 2026-05-05 23:02 | 34.52992 | -79.54085 | 37078 ft | 421 kts | 15° |
| 2026-05-05 23:02 | 34.58274 | -79.50997 | 37090 ft | 421 kts | 14° |
| 2026-05-05 23:03 | 34.63552 | -79.47912 | 37087 ft | 422 kts | 15° |
| 2026-05-05 23:03 | 34.68841 | -79.44814 | 37078 ft | 422 kts | 15° |
| 2026-05-05 23:04 | 34.74121 | -79.41704 | 37088 ft | 422 kts | 15° |
| 2026-05-05 23:04 | 34.79391 | -79.38596 | 37091 ft | 420 kts | 15° |
| 2026-05-05 23:05 | 34.84634 | -79.35501 | 37061 ft | 418 kts | 15° |
| 2026-05-05 23:05 | 34.89877 | -79.32416 | 37060 ft | 419 kts | 15° |
| 2026-05-05 23:06 | 34.95120 | -79.29319 | 37061 ft | 419 kts | 15° |
| 2026-05-05 23:06 | 35.00373 | -79.26203 | 37036 ft | 420 kts | 15° |
| 2026-05-05 23:07 | 35.05622 | -79.23095 | 37058 ft | 420 kts | 15° |
| 2026-05-05 23:07 | 35.10878 | -79.19977 | 37053 ft | 420 kts | 15° |
| 2026-05-05 23:08 | 35.16132 | -79.16850 | 37049 ft | 420 kts | 15° |
| 2026-05-05 23:08 | 35.21383 | -79.13728 | 37043 ft | 420 kts | 15° |
| 2026-05-05 23:09 | 35.26641 | -79.10591 | 37068 ft | 420 kts | 15° |
| 2026-05-05 23:09 | 35.31898 | -79.07451 | 37055 ft | 421 kts | 15° |
| 2026-05-05 23:10 | 35.37162 | -79.04308 | 37060 ft | 422 kts | 16° |
| 2026-05-05 23:10 | 35.42434 | -79.01150 | 37039 ft | 423 kts | 16° |
| 2026-05-05 23:11 | 35.47726 | -78.97974 | 37034 ft | 424 kts | 16° |
| 2026-05-05 23:11 | 35.53035 | -78.94784 | 37046 ft | 425 kts | 16° |
| 2026-05-05 23:12 | 35.58349 | -78.91582 | 37046 ft | 425 kts | 16° |
| 2026-05-05 23:12 | 35.63665 | -78.88374 | 37041 ft | 426 kts | 16° |
| 2026-05-05 23:13 | 35.68984 | -78.85173 | 37045 ft | 426 kts | 16° |
| 2026-05-05 23:13 | 35.74302 | -78.81971 | 37068 ft | 426 kts | 16° |
| 2026-05-05 23:14 | 35.79622 | -78.78754 | 37048 ft | 427 kts | 16° |
| 2026-05-05 23:14 | 35.84938 | -78.75527 | 37037 ft | 428 kts | 17° |
| 2026-05-05 23:15 | 35.90280 | -78.72282 | 37039 ft | 428 kts | 16° |
| 2026-05-05 23:15 | 35.95625 | -78.69029 | 37046 ft | 428 kts | 16° |
| 2026-05-05 23:16 | 36.00964 | -78.65778 | 37069 ft | 429 kts | 17° |
| 2026-05-05 23:16 | 36.06320 | -78.62510 | 37058 ft | 429 kts | 17° |
| 2026-05-05 23:17 | 36.11672 | -78.59242 | 37048 ft | 430 kts | 17° |
| 2026-05-05 23:17 | 36.17043 | -78.55961 | 37034 ft | 430 kts | 17° |
| 2026-05-05 23:18 | 36.22409 | -78.52671 | 37043 ft | 431 kts | 17° |
| 2026-05-05 23:18 | 36.27790 | -78.49382 | 37036 ft | 432 kts | 17° |
| 2026-05-05 23:19 | 36.33180 | -78.46076 | 37034 ft | 433 kts | 17° |
| 2026-05-05 23:19 | 36.38539 | -78.42771 | 37037 ft | 433 kts | 17° |
| 2026-05-05 23:20 | 36.43970 | -78.39417 | 37049 ft | 433 kts | 17° |
| 2026-05-05 23:20 | 36.49375 | -78.36086 | 37038 ft | 434 kts | 17° |
| 2026-05-05 23:21 | 36.54739 | -78.32766 | 37029 ft | 434 kts | 17° |
| 2026-05-05 23:21 | 36.60182 | -78.29396 | 37055 ft | 434 kts | 17° |
| 2026-05-05 23:22 | 36.65587 | -78.26044 | 37096 ft | 434 kts | 17° |
| 2026-05-05 23:22 | 36.71009 | -78.22681 | 37072 ft | 436 kts | 17° |
| 2026-05-05 23:23 | 36.76437 | -78.19306 | 37068 ft | 436 kts | 17° |
| 2026-05-05 23:23 | 36.81826 | -78.15946 | 37061 ft | 436 kts | 17° |
| 2026-05-05 23:24 | 36.87293 | -78.12542 | 37049 ft | 436 kts | 17° |
| 2026-05-05 23:24 | 36.92686 | -78.09169 | 37013 ft | 437 kts | 17° |
| 2026-05-05 23:25 | 36.98121 | -78.05755 | 37005 ft | 437 kts | 17° |
| 2026-05-05 23:25 | 37.03565 | -78.02333 | 37001 ft | 438 kts | 17° |
| 2026-05-05 23:26 | 37.09011 | -77.98914 | 37002 ft | 438 kts | 17° |
| 2026-05-05 23:26 | 37.14466 | -77.95484 | 37026 ft | 439 kts | 18° |
| 2026-05-05 23:27 | 37.19925 | -77.92046 | 37006 ft | 439 kts | 18° |
| 2026-05-05 23:27 | 37.25390 | -77.88601 | 37010 ft | 439 kts | 18° |
| 2026-05-05 23:28 | 37.30856 | -77.85146 | 37003 ft | 440 kts | 18° |
| 2026-05-05 23:28 | 37.36326 | -77.81673 | 37010 ft | 441 kts | 18° |
| 2026-05-05 23:29 | 37.41799 | -77.78187 | 37010 ft | 441 kts | 18° |
| 2026-05-05 23:29 | 37.47288 | -77.74707 | 37010 ft | 441 kts | 18° |
| 2026-05-05 23:30 | 37.52757 | -77.71181 | 37004 ft | 445 kts | 21° |
| 2026-05-05 23:30 | 37.58054 | -77.67053 | 37020 ft | 449 kts | 24° |
| 2026-05-05 23:31 | 37.63291 | -77.62731 | 37002 ft | 450 kts | 24° |
| 2026-05-05 23:31 | 37.68537 | -77.58405 | 37004 ft | 450 kts | 24° |
| 2026-05-05 23:32 | 37.73798 | -77.54130 | 37000 ft | 450 kts | 24° |
| 2026-05-05 23:32 | 37.79083 | -77.49872 | 36998 ft | 450 kts | 24° |
| 2026-05-05 23:33 | 37.84354 | -77.45596 | 36997 ft | 451 kts | 24° |
| 2026-05-05 23:33 | 37.89625 | -77.41292 | 36994 ft | 451 kts | 24° |
| 2026-05-05 23:34 | 37.94898 | -77.36979 | 36991 ft | 451 kts | 24° |
| 2026-05-05 23:34 | 38.00140 | -77.32697 | 36979 ft | 451 kts | 24° |
| 2026-05-05 23:35 | 38.05425 | -77.28384 | 36962 ft | 451 kts | 24° |
| 2026-05-05 23:35 | 38.10703 | -77.24067 | 36953 ft | 452 kts | 24° |
| 2026-05-05 23:36 | 38.15979 | -77.19722 | 36952 ft | 452 kts | 25° |
| 2026-05-05 23:36 | 38.21255 | -77.15385 | 36953 ft | 451 kts | 25° |
| 2026-05-05 23:37 | 38.26519 | -77.11048 | 36941 ft | 451 kts | 25° |
| 2026-05-05 23:37 | 38.31741 | -77.06596 | 36937 ft | 454 kts | 27° |
| 2026-05-05 23:38 | 38.36799 | -77.01734 | 36937 ft | 457 kts | 30° |
| 2026-05-05 23:38 | 38.41811 | -76.96732 | 36938 ft | 457 kts | 30° |
| 2026-05-05 23:39 | 38.46850 | -76.91809 | 36933 ft | 456 kts | 29° |
| 2026-05-05 23:39 | 38.51916 | -76.86938 | 36921 ft | 456 kts | 28° |
| 2026-05-05 23:40 | 38.56980 | -76.82052 | 36928 ft | 457 kts | 29° |
| 2026-05-05 23:40 | 38.62043 | -76.77143 | 36944 ft | 457 kts | 29° |
| 2026-05-05 23:41 | 38.67093 | -76.72226 | 36931 ft | 456 kts | 29° |
| 2026-05-05 23:41 | 38.72113 | -76.67340 | 36915 ft | 456 kts | 29° |
| 2026-05-05 23:42 | 38.77211 | -76.62384 | 36921 ft | 457 kts | 29° |
| 2026-05-05 23:42 | 38.82231 | -76.57475 | 36940 ft | 458 kts | 30° |
| 2026-05-05 23:43 | 38.87297 | -76.52520 | 36936 ft | 458 kts | 30° |
| 2026-05-05 23:43 | 38.92360 | -76.47556 | 36940 ft | 458 kts | 30° |
| 2026-05-05 23:44 | 38.97413 | -76.42593 | 36928 ft | 457 kts | 30° |
| 2026-05-05 23:44 | 39.01644 | -76.38425 | 36950 ft | 457 kts | 30° |
| 2026-05-05 23:45 | 39.04147 | -76.35879 | 36817 ft | 459 kts | 32° |
| 2026-05-05 23:45 | 39.06568 | -76.33230 | 35930 ft | 468 kts | 34° |
| 2026-05-05 23:45 | 39.09033 | -76.30358 | 35027 ft | 476 kts | 36° |
| 2026-05-05 23:45 | 39.11464 | -76.27425 | 34185 ft | 481 kts | 37° |
| 2026-05-05 23:46 | 39.13868 | -76.24494 | 33273 ft | 484 kts | 38° |
| 2026-05-05 23:46 | 39.16334 | -76.21511 | 32320 ft | 488 kts | 38° |
| 2026-05-05 23:46 | 39.18835 | -76.18539 | 31362 ft | 491 kts | 38° |
| 2026-05-05 23:46 | 39.21410 | -76.15518 | 30381 ft | 496 kts | 39° |
| 2026-05-05 23:47 | 39.23943 | -76.12568 | 29307 ft | 500 kts | 39° |
| 2026-05-05 23:47 | 39.26529 | -76.09561 | 27866 ft | 500 kts | 39° |
| 2026-05-05 23:47 | 39.29117 | -76.06543 | 26131 ft | 507 kts | 40° |
| 2026-05-05 23:47 | 39.31744 | -76.03465 | 25213 ft | 508 kts | 40° |
| 2026-05-05 23:48 | 39.34351 | -76.00396 | 24952 ft | 509 kts | 41° |
| 2026-05-05 23:48 | 39.36972 | -75.97305 | 24706 ft | 511 kts | 41° |
| 2026-05-05 23:48 | 39.39598 | -75.94204 | 24474 ft | 512 kts | 41° |
| 2026-05-05 23:48 | 39.42227 | -75.91100 | 24257 ft | 514 kts | 41° |
| 2026-05-05 23:49 | 39.44870 | -75.87978 | 23807 ft | 513 kts | 41° |
| 2026-05-05 23:49 | 39.47500 | -75.84869 | 23342 ft | 511 kts | 41° |
| 2026-05-05 23:49 | 39.50113 | -75.81776 | 22883 ft | 508 kts | 41° |
| 2026-05-05 23:49 | 39.52713 | -75.78693 | 22454 ft | 505 kts | 41° |
| 2026-05-05 23:50 | 39.55288 | -75.75633 | 22015 ft | 499 kts | 41° |
| 2026-05-05 23:50 | 39.57834 | -75.72609 | 21576 ft | 495 kts | 41° |
| 2026-05-05 23:50 | 39.60365 | -75.69603 | 21152 ft | 493 kts | 41° |
| 2026-05-05 23:50 | 39.62885 | -75.66605 | 20729 ft | 490 kts | 41° |
| 2026-05-05 23:51 | 39.65390 | -75.63619 | 20310 ft | 487 kts | 41° |
| 2026-05-05 23:51 | 39.67872 | -75.60658 | 19871 ft | 484 kts | 41° |
| 2026-05-05 23:51 | 39.70342 | -75.57703 | 19396 ft | 481 kts | 41° |
| 2026-05-05 23:51 | 39.72784 | -75.54764 | 18909 ft | 477 kts | 41° |
| 2026-05-05 23:52 | 39.75209 | -75.51837 | 18426 ft | 474 kts | 41° |
| 2026-05-05 23:52 | 39.77611 | -75.48930 | 17910 ft | 470 kts | 41° |
| 2026-05-05 23:52 | 39.79996 | -75.46040 | 17431 ft | 467 kts | 41° |
| 2026-05-05 23:52 | 39.82332 | -75.43212 | 16966 ft | 463 kts | 41° |
| 2026-05-05 23:53 | 39.84694 | -75.40353 | 16666 ft | 449 kts | 41° |
| 2026-05-05 23:53 | 39.86935 | -75.37639 | 16532 ft | 432 kts | 41° |
| 2026-05-05 23:53 | 39.89096 | -75.35024 | 16405 ft | 416 kts | 41° |
| 2026-05-05 23:53 | 39.91176 | -75.32503 | 16275 ft | 400 kts | 41° |
| 2026-05-05 23:54 | 39.93143 | -75.30111 | 16153 ft | 381 kts | 41° |
| 2026-05-05 23:54 | 39.95015 | -75.27830 | 15873 ft | 359 kts | 41° |
| 2026-05-05 23:54 | 39.96813 | -75.25642 | 15286 ft | 350 kts | 41° |
| 2026-05-05 23:54 | 39.98579 | -75.23494 | 14605 ft | 345 kts | 41° |
| 2026-05-05 23:55 | 40.00324 | -75.21372 | 13940 ft | 341 kts | 41° |
| 2026-05-05 23:55 | 40.02069 | -75.19248 | 13227 ft | 337 kts | 41° |
| 2026-05-05 23:55 | 40.03767 | -75.17179 | 12626 ft | 329 kts | 40° |
| 2026-05-05 23:55 | 40.05424 | -75.15161 | 12395 ft | 326 kts | 40° |
| 2026-05-05 23:56 | 40.07085 | -75.13143 | 12138 ft | 326 kts | 40° |
| 2026-05-05 23:56 | 40.08741 | -75.11126 | 11833 ft | 326 kts | 40° |
| 2026-05-05 23:56 | 40.10390 | -75.09109 | 11493 ft | 323 kts | 40° |
| 2026-05-05 23:56 | 40.11999 | -75.07137 | 11175 ft | 320 kts | 40° |
| 2026-05-05 23:57 | 40.13643 | -75.05128 | 10846 ft | 317 kts | 40° |
| 2026-05-05 23:57 | 40.15253 | -75.03161 | 10574 ft | 316 kts | 40° |
| 2026-05-05 23:57 | 40.16853 | -75.01196 | 10281 ft | 314 kts | 40° |
| 2026-05-05 23:57 | 40.18433 | -74.99249 | 9980 ft | 311 kts | 40° |
| 2026-05-05 23:58 | 40.19988 | -74.97330 | 9689 ft | 310 kts | 40° |
| 2026-05-05 23:58 | 40.21559 | -74.95395 | 9384 ft | 309 kts | 40° |
| 2026-05-05 23:58 | 40.23125 | -74.93467 | 9095 ft | 310 kts | 40° |
| 2026-05-05 23:58 | 40.24697 | -74.91534 | 8824 ft | 310 kts | 40° |
| 2026-05-05 23:59 | 40.26251 | -74.89575 | 8537 ft | 310 kts | 42° |
| 2026-05-05 23:59 | 40.27730 | -74.87561 | 8251 ft | 311 kts | 44° |
| 2026-05-05 23:59 | 40.29200 | -74.85482 | 8045 ft | 311 kts | 45° |
| 2026-05-05 23:59 | 40.30683 | -74.83358 | 8034 ft | 313 kts | 45° |
| 2026-05-06 00:00 | 40.32135 | -74.81283 | 8046 ft | 313 kts | 45° |
| 2026-05-06 00:00 | 40.33612 | -74.79179 | 7874 ft | 314 kts | 45° |
| 2026-05-06 00:00 | 40.35093 | -74.77075 | 7605 ft | 312 kts | 45° |
| 2026-05-06 00:00 | 40.36573 | -74.74980 | 7498 ft | 314 kts | 44° |
| 2026-05-06 00:01 | 40.38060 | -74.72887 | 7388 ft | 314 kts | 44° |
| 2026-05-06 00:01 | 40.39550 | -74.70791 | 7284 ft | 313 kts | 44° |
| 2026-05-06 00:01 | 40.41068 | -74.68748 | 7179 ft | 311 kts | 37° |
| 2026-05-06 00:01 | 40.42848 | -74.67186 | 7076 ft | 306 kts | 21° |
| 2026-05-06 00:02 | 40.44829 | -74.66268 | 6958 ft | 300 kts | 6° |
| 2026-05-06 00:02 | 40.46878 | -74.65732 | 6856 ft | 300 kts | 5° |
| 2026-05-06 00:02 | 40.48921 | -74.65193 | 6774 ft | 300 kts | 5° |
| 2026-05-06 00:02 | 40.50964 | -74.64647 | 6666 ft | 300 kts | 5° |
| 2026-05-06 00:03 | 40.53008 | -74.64098 | 6573 ft | 299 kts | 5° |
| 2026-05-06 00:03 | 40.55049 | -74.63545 | 6476 ft | 299 kts | 6° |
| 2026-05-06 00:03 | 40.57085 | -74.62992 | 6374 ft | 299 kts | 5° |
| 2026-05-06 00:03 | 40.59122 | -74.62442 | 6279 ft | 299 kts | 5° |
| 2026-05-06 00:04 | 40.61160 | -74.61894 | 6179 ft | 299 kts | 5° |
| 2026-05-06 00:04 | 40.63189 | -74.61349 | 6073 ft | 297 kts | 5° |
| 2026-05-06 00:04 | 40.65217 | -74.60805 | 5974 ft | 298 kts | 5° |
| 2026-05-06 00:04 | 40.67254 | -74.60263 | 5881 ft | 299 kts | 5° |
| 2026-05-06 00:05 | 40.71318 | -74.59176 | 5683 ft | 297 kts | 6° |
| 2026-05-06 00:05 | 40.73354 | -74.58632 | 5589 ft | 298 kts | 6° |
| 2026-05-06 00:05 | 40.75389 | -74.58086 | 5492 ft | 298 kts | 6° |
| 2026-05-06 00:06 | 40.77431 | -74.57538 | 5390 ft | 300 kts | 6° |
| 2026-05-06 00:06 | 40.79478 | -74.56987 | 5305 ft | 300 kts | 6° |
| 2026-05-06 00:06 | 40.81518 | -74.56438 | 5203 ft | 299 kts | 6° |
| 2026-05-06 00:06 | 40.83554 | -74.55839 | 5103 ft | 303 kts | 13° |
| 2026-05-06 00:07 | 40.85374 | -74.54419 | 5004 ft | 308 kts | 43° |
| 2026-05-06 00:07 | 40.86524 | -74.52066 | 4914 ft | 306 kts | 73° |
| 2026-05-06 00:07 | 40.87108 | -74.49371 | 4809 ft | 305 kts | 78° |
| 2026-05-06 00:07 | 40.87663 | -74.46667 | 4715 ft | 306 kts | 78° |
| 2026-05-06 00:08 | 40.88217 | -74.43951 | 4612 ft | 306 kts | 78° |
| 2026-05-06 00:08 | 40.88771 | -74.41248 | 4514 ft | 303 kts | 78° |
| 2026-05-06 00:08 | 40.89323 | -74.38549 | 4416 ft | 303 kts | 78° |
| 2026-05-06 00:08 | 40.89874 | -74.35864 | 4314 ft | 303 kts | 78° |
| 2026-05-06 00:09 | 40.90418 | -74.33212 | 4216 ft | 303 kts | 78° |
| 2026-05-06 00:09 | 40.90969 | -74.30523 | 4139 ft | 303 kts | 78° |
| 2026-05-06 00:09 | 40.91516 | -74.27841 | 4023 ft | 302 kts | 78° |
| 2026-05-06 00:09 | 40.92067 | -74.25162 | 3927 ft | 301 kts | 79° |
| 2026-05-06 00:10 | 40.92617 | -74.22491 | 3830 ft | 301 kts | 79° |
| 2026-05-06 00:10 | 40.93127 | -74.19806 | 3732 ft | 300 kts | 86° |
| 2026-05-06 00:10 | 40.93073 | -74.17117 | 3640 ft | 287 kts | 110° |
| 2026-05-06 00:10 | 40.92336 | -74.14744 | 3540 ft | 273 kts | 131° |
| 2026-05-06 00:11 | 40.91110 | -74.12928 | 3452 ft | 259 kts | 151° |
| 2026-05-06 00:11 | 40.89610 | -74.11710 | 3360 ft | 253 kts | 159° |
| 2026-05-06 00:11 | 40.88145 | -74.10617 | 3267 ft | 244 kts | 159° |
| 2026-05-06 00:11 | 40.86708 | -74.09532 | 3175 ft | 231 kts | 159° |
| 2026-05-06 00:12 | 40.85358 | -74.08514 | 3122 ft | 214 kts | 160° |
| 2026-05-06 00:12 | 40.84070 | -74.07917 | 3053 ft | 180 kts | 179° |
| 2026-05-06 00:12 | 40.82940 | -74.07932 | 2951 ft | 147 kts | 195° |
| 2026-05-06 00:12 | 40.82043 | -74.08297 | 2706 ft | 131 kts | 208° |
| 2026-05-06 00:13 | 40.81232 | -74.08825 | 2510 ft | 129 kts | 208° |
| 2026-05-06 00:13 | 40.80429 | -74.09341 | 2341 ft | 126 kts | 208° |
| 2026-05-06 00:13 | 40.79634 | -74.09851 | 2157 ft | 128 kts | 209° |
| 2026-05-06 00:13 | 40.78838 | -74.10361 | 1987 ft | 126 kts | 208° |
| 2026-05-06 00:14 | 40.78051 | -74.10863 | 1834 ft | 126 kts | 207° |
| 2026-05-06 00:14 | 40.77251 | -74.11375 | 1669 ft | 128 kts | 207° |
| 2026-05-06 00:14 | 40.76460 | -74.11881 | 1568 ft | 126 kts | 207° |
| 2026-05-06 00:14 | 40.75666 | -74.12387 | 1365 ft | 127 kts | 207° |
| 2026-05-06 00:15 | 40.74865 | -74.12901 | 1124 ft | 127 kts | 207° |
| 2026-05-06 00:15 | 40.74073 | -74.13426 | 918 ft | 128 kts | 207° |
| 2026-05-06 00:15 | 40.73263 | -74.13929 | 770 ft | 127 kts | 207° |
| 2026-05-06 00:15 | 40.72471 | -74.14429 | 659 ft | 125 kts | 206° |
| 2026-05-06 00:16 | 40.71682 | -74.14940 | 496 ft | 128 kts | 205° |
| 2026-05-06 00:16 | 40.70889 | -74.15444 | 322 ft | 128 kts | 205° |
| 2026-05-06 00:16 | 40.70096 | -74.15939 | 156 ft | 124 kts | 205° |
| 2026-05-06 00:16 | 40.69334 | -74.16421 | 31 ft | 111 kts | 205° |
| 2026-05-06 00:17 | 40.68818 | -74.16747 | 19 ft | 41 kts | 206° |
| 2026-05-06 00:17 | 40.68684 | -74.16834 | 21 ft | 20 kts | 206° |
| 2026-05-06 00:17 | 40.68573 | -74.16934 | 21 ft | 19 kts | 223° |
| 2026-05-06 00:17 | 40.68503 | -74.17058 | 25 ft | 11 kts | 237° |
| 2026-05-06 00:18 | 40.68477 | -74.17113 | 25 ft | 6 kts | 237° |
| 2026-05-06 00:18 | 40.68453 | -74.17159 | 25 ft | 6 kts | 235° |
| 2026-05-06 00:18 | 40.68437 | -74.17218 | 26 ft | 10 kts | 277° |
| 2026-05-06 00:18 | 40.68485 | -74.17351 | 24 ft | 21 kts | 295° |
| 2026-05-06 00:19 | 40.68555 | -74.17489 | 29 ft | 16 kts | 318° |
| 2026-05-06 00:19 | 40.68615 | -74.17608 | 24 ft | 12 kts | 296° |
| 2026-05-06 00:19 | 40.68666 | -74.17656 | 24 ft | 7 kts | 348° |
| 2026-05-06 00:19 | 40.68703 | -74.17662 | 22 ft | 3 kts | 353° |
| 2026-05-06 00:20 | 40.68713 | -74.17663 | 23 ft | 1 kts | 358° |
| 2026-05-06 00:20 | 40.68720 | -74.17663 | 23 ft | 1 kts | 1° |
| 2026-05-06 00:20 | 40.68723 | -74.17662 | 23 ft | 0 kts | 2° |